createdAt,value
2019-03-13T00:02:14.325Z,99139.37
2019-03-13T00:04:45.653Z,99131.53
2019-03-13T00:07:16.932Z,99139.30
2019-03-13T00:09:48.166Z,99133.81
2019-03-13T00:12:19.438Z,99135.58
2019-03-13T00:14:50.742Z,99133.48
2019-03-13T00:17:22.040Z,99143.56
2019-03-13T00:19:53.295Z,99143.74
2019-03-13T00:22:24.566Z,99149.94
2019-03-13T00:24:56.352Z,99144.92
2019-03-13T00:27:28.790Z,99146.81
2019-03-13T00:30:00.063Z,99136.41
2019-03-13T00:32:31.355Z,99139.90
2019-03-13T00:35:02.596Z,99148.11
2019-03-13T00:37:33.827Z,99149.67
2019-03-13T00:40:05.267Z,99143.22
2019-03-13T00:42:36.558Z,99149.08
2019-03-13T00:45:08.040Z,99131.66
2019-03-13T00:47:39.330Z,99154.98
2019-03-13T00:50:15.927Z,99145.45
2019-03-13T00:52:47.256Z,99150.00
2019-03-13T00:55:18.476Z,99145.84
2019-03-13T00:57:49.720Z,99144.73
2019-03-13T01:00:55.228Z,99143.03
2019-03-13T01:03:43.401Z,99143.55
2019-03-13T01:06:21.450Z,99145.55
2019-03-13T01:08:52.722Z,99154.59
2019-03-13T01:11:27.139Z,99144.52
2019-03-13T01:13:56.945Z,99140.68
2019-03-13T01:16:28.225Z,99140.08
2019-03-13T01:18:59.488Z,99146.47
2019-03-13T01:21:30.764Z,99122.26
2019-03-13T01:24:02.031Z,99137.52
2019-03-13T01:26:33.292Z,99128.65
2019-03-13T01:29:04.672Z,99134.40
2019-03-13T01:31:46.256Z,99132.77
2019-03-13T01:34:30.296Z,99131.41
2019-03-13T01:37:01.587Z,99118.59
2019-03-13T01:39:32.837Z,99127.94
2019-03-13T01:42:04.137Z,99124.00
2019-03-13T01:44:35.624Z,99108.88
2019-03-13T01:47:07.008Z,99117.28
2019-03-13T01:49:38.238Z,99117.22
2019-03-13T01:52:09.544Z,99130.08
2019-03-13T01:54:40.803Z,99131.80
2019-03-13T01:57:12.086Z,99118.00
2019-03-13T01:59:43.442Z,99114.56
2019-03-13T02:02:14.729Z,99115.91
2019-03-13T02:04:46.036Z,99112.27
2019-03-13T02:07:17.280Z,99097.19
2019-03-13T02:09:48.539Z,99111.14
2019-03-13T02:12:19.793Z,99115.05
2019-03-13T02:14:51.079Z,99118.97
2019-03-13T02:17:22.337Z,99107.82
2019-03-13T02:19:53.571Z,99084.77
2019-03-13T02:22:25.157Z,99101.03
2019-03-13T02:24:56.455Z,99111.02
2019-03-13T02:27:27.736Z,99082.36
2019-03-13T02:29:58.985Z,99087.64
2019-03-13T02:32:30.257Z,99100.86
2019-03-13T02:35:01.516Z,99093.35
2019-03-13T02:37:32.801Z,99097.84
2019-03-13T02:40:04.100Z,99111.69
2019-03-13T02:42:35.394Z,99095.83
2019-03-13T02:45:07.973Z,99095.87
2019-03-13T02:47:39.221Z,99105.87
2019-03-13T02:50:12.088Z,99116.39
2019-03-13T02:52:43.542Z,99094.72
2019-03-13T02:55:15.511Z,99100.56
2019-03-13T02:57:46.755Z,99078.06
2019-03-13T03:00:19.888Z,99087.59
2019-03-13T03:02:57.204Z,99091.18
2019-03-13T03:05:28.481Z,99075.10
2019-03-13T03:07:59.775Z,99080.53
2019-03-13T03:10:31.020Z,99114.92
2019-03-13T03:13:02.354Z,99084.45
2019-03-13T03:15:33.641Z,99099.31
2019-03-13T03:18:04.892Z,99076.41
2019-03-13T03:20:36.192Z,99085.55
2019-03-13T03:23:07.438Z,99090.34
2019-03-13T03:25:38.671Z,99077.81
2019-03-13T03:28:09.917Z,99068.20
2019-03-13T03:30:41.225Z,99066.70
2019-03-13T03:33:12.385Z,99064.53
2019-03-13T03:35:43.625Z,99059.06
2019-03-13T03:38:14.830Z,99067.30
2019-03-13T03:40:46.051Z,99073.96
2019-03-13T03:43:17.760Z,99059.96
2019-03-13T03:45:48.985Z,99075.67
2019-03-13T03:48:20.209Z,99051.80
2019-03-13T03:50:51.512Z,99054.08
2019-03-13T03:53:22.813Z,99066.04
2019-03-13T03:55:54.201Z,99057.67
2019-03-13T03:58:29.019Z,99066.41
2019-03-13T04:00:58.442Z,99062.66
2019-03-13T04:03:29.761Z,99078.66
2019-03-13T04:06:01.510Z,99077.80
2019-03-13T04:08:32.777Z,99062.66
2019-03-13T04:11:04.065Z,99054.13
2019-03-13T04:13:35.306Z,99087.20
2019-03-13T04:16:06.546Z,99088.50
2019-03-13T04:18:37.803Z,99065.91
2019-03-13T04:21:09.139Z,99083.22
2019-03-13T04:23:40.427Z,99087.83
2019-03-13T04:26:13.009Z,99074.12
2019-03-13T04:28:44.658Z,99073.54
2019-03-13T04:31:15.937Z,99084.53
2019-03-13T04:33:47.222Z,99082.04
2019-03-13T04:36:18.524Z,99099.55
2019-03-13T04:38:49.802Z,99079.95
2019-03-13T04:41:21.074Z,99076.48
2019-03-13T04:43:52.375Z,99084.45
2019-03-13T04:46:23.625Z,99075.30
2019-03-13T04:48:54.875Z,99079.22
2019-03-13T04:51:26.196Z,99057.77
2019-03-13T04:53:57.486Z,99089.14
2019-03-13T04:56:28.743Z,99078.77
2019-03-13T04:59:00.081Z,99076.28
2019-03-13T05:01:31.345Z,99077.01
2019-03-13T05:04:02.731Z,99080.39
2019-03-13T05:06:34.513Z,99077.83
2019-03-13T05:09:11.329Z,99075.38
2019-03-13T05:11:42.597Z,99050.70
2019-03-13T05:14:13.850Z,99057.93
2019-03-13T05:16:45.140Z,99063.16
2019-03-13T05:19:16.436Z,99084.37
2019-03-13T05:21:47.758Z,99059.85
2019-03-13T05:24:19.078Z,99071.28
2019-03-13T05:26:50.366Z,99059.85
2019-03-13T05:29:21.660Z,99065.61
2019-03-13T05:31:52.897Z,99063.89
2019-03-13T05:34:24.164Z,99063.67
2019-03-13T05:36:55.440Z,99062.81
2019-03-13T05:39:26.711Z,99059.59
2019-03-13T05:41:57.948Z,99058.89
2019-03-13T05:44:29.302Z,99071.84
2019-03-13T05:47:00.529Z,99057.99
2019-03-13T05:49:31.830Z,99048.46
2019-03-13T05:52:03.160Z,99055.77
2019-03-13T05:54:34.432Z,99053.80
2019-03-13T05:57:05.738Z,99045.31
2019-03-13T05:59:37.047Z,99028.09
2019-03-13T06:02:08.412Z,99047.55
2019-03-13T06:04:39.649Z,99038.96
2019-03-13T06:07:10.927Z,99046.95
2019-03-13T06:09:42.167Z,99040.48
2019-03-13T06:12:13.557Z,99075.88
2019-03-13T06:14:44.841Z,99038.50
2019-03-13T06:17:16.125Z,99061.19
2019-03-13T06:19:47.436Z,99049.20
2019-03-13T06:22:18.738Z,99048.13
2019-03-13T06:24:50.036Z,99044.20
2019-03-13T06:27:21.307Z,99037.75
2019-03-13T06:29:52.641Z,99047.98
2019-03-13T06:32:23.905Z,99053.28
2019-03-13T06:34:55.205Z,99034.06
2019-03-13T06:37:26.558Z,99043.36
2019-03-13T06:39:57.811Z,99074.38
2019-03-13T06:42:29.155Z,99050.48
2019-03-13T06:45:00.442Z,99057.33
2019-03-13T06:47:31.721Z,99063.94
2019-03-13T06:50:02.988Z,99056.95
2019-03-13T06:52:34.282Z,99069.09
2019-03-13T06:55:06.036Z,99041.85
2019-03-13T06:57:37.348Z,99039.73
2019-03-13T07:00:42.134Z,99041.31
2019-03-13T07:03:44.124Z,99032.94
2019-03-13T07:06:31.286Z,99025.67
2019-03-13T07:09:19.831Z,99032.06
2019-03-13T07:12:16.142Z,99073.36
2019-03-13T07:15:09.135Z,99046.81
2019-03-13T07:17:57.716Z,99048.06
2019-03-13T07:20:46.284Z,99055.13
2019-03-13T07:23:26.703Z,99047.54
2019-03-13T07:26:34.918Z,99039.28
2019-03-13T07:29:23.196Z,99033.59
2019-03-13T07:32:11.818Z,99037.30
2019-03-13T07:35:04.960Z,99039.88
2019-03-13T07:38:10.233Z,99047.55
2019-03-13T07:41:09.355Z,99040.77
2019-03-13T07:43:59.490Z,99053.55
2019-03-13T07:46:49.709Z,99057.22
2019-03-13T07:49:31.246Z,99047.22
2019-03-13T07:52:20.117Z,99045.71
2019-03-13T07:55:18.318Z,99050.56
2019-03-13T07:58:06.866Z,99054.86
2019-03-13T08:01:00.087Z,99048.73
2019-03-13T08:03:48.642Z,99053.26
2019-03-13T08:06:37.518Z,99047.22
2019-03-13T08:09:34.059Z,99043.26
2019-03-13T08:12:39.127Z,99045.05
2019-03-13T08:15:23.725Z,99013.41
2019-03-13T08:18:13.872Z,99034.16
2019-03-13T08:21:02.757Z,99019.98
2019-03-13T08:23:51.368Z,99031.30
2019-03-13T08:26:31.289Z,99005.38
2019-03-13T08:29:20.023Z,99020.85
2019-03-13T08:32:13.320Z,99010.34
2019-03-13T08:35:00.748Z,99008.50
2019-03-13T08:37:51.921Z,99009.97
2019-03-13T08:40:31.204Z,99006.47
2019-03-13T08:43:20.548Z,99012.70
2019-03-13T08:46:04.729Z,99040.35
2019-03-13T08:48:48.957Z,99001.13
2019-03-13T08:51:35.805Z,99002.35
2019-03-13T08:54:24.503Z,99000.28
2019-03-13T08:57:26.705Z,99018.14
2019-03-13T09:00:16.925Z,99022.07
2019-03-13T09:03:22.063Z,99010.97
2019-03-13T09:06:12.231Z,99016.83
2019-03-13T09:09:00.900Z,99027.51
2019-03-13T09:12:00.019Z,99031.52
2019-03-13T09:14:38.427Z,99004.97
2019-03-13T09:17:24.766Z,99023.46
2019-03-13T09:20:17.721Z,98992.67
2019-03-13T09:23:13.738Z,99016.84
2019-03-13T09:26:02.582Z,98998.21
2019-03-13T09:28:59.287Z,99010.21
2019-03-13T09:31:58.273Z,99015.61
2019-03-13T09:34:43.887Z,98997.52
2019-03-13T09:37:32.442Z,98998.52
2019-03-13T09:40:21.549Z,98994.64
2019-03-13T09:43:01.960Z,99006.03
2019-03-13T09:46:04.431Z,98978.78
2019-03-13T09:49:04.016Z,98996.38
2019-03-13T09:52:06.376Z,98996.38
2019-03-13T09:54:43.774Z,98998.64
2019-03-13T09:57:45.976Z,98989.38
2019-03-13T10:00:27.038Z,99006.77
2019-03-13T10:03:10.054Z,99012.33
2019-03-13T10:05:48.623Z,98994.65
2019-03-13T10:08:30.396Z,98995.99
2019-03-13T10:11:13.441Z,99005.14
2019-03-13T10:14:02.347Z,99008.52
2019-03-13T10:16:44.831Z,98996.89
2019-03-13T10:19:38.936Z,98990.16
2019-03-13T10:22:29.135Z,98978.36
2019-03-13T10:25:19.306Z,99004.93
2019-03-13T10:28:02.247Z,98996.67
2019-03-13T10:31:07.587Z,98985.02
2019-03-13T10:34:12.606Z,98968.17
2019-03-13T10:37:14.786Z,98997.97
2019-03-13T10:39:58.941Z,98973.01
2019-03-13T10:42:53.610Z,99027.25
2019-03-13T10:45:30.921Z,99004.22
2019-03-13T10:48:07.042Z,98989.48
2019-03-13T10:51:00.231Z,98986.20
2019-03-13T10:53:48.794Z,98963.87
2019-03-13T10:56:51.129Z,98953.10
2019-03-13T10:59:41.352Z,98974.66
2019-03-13T11:02:29.910Z,98962.42
2019-03-13T11:05:18.564Z,98969.02
2019-03-13T11:08:00.556Z,98957.97
2019-03-13T11:10:50.706Z,98962.34
2019-03-13T11:13:39.414Z,98978.90
2019-03-13T11:16:27.953Z,98961.50
2019-03-13T11:19:21.083Z,98966.59
2019-03-13T11:22:11.237Z,98978.05
2019-03-13T11:24:48.539Z,98965.14
2019-03-13T11:27:29.298Z,98983.59
2019-03-13T11:30:31.482Z,98959.83
2019-03-13T11:33:27.460Z,98956.81
2019-03-13T11:36:23.644Z,98983.52
2019-03-13T11:39:10.168Z,98969.84
2019-03-13T11:41:59.089Z,98971.52
2019-03-13T11:45:07.447Z,98963.16
2019-03-13T11:47:46.120Z,98963.44
2019-03-13T11:50:45.373Z,98972.91
2019-03-13T11:53:31.624Z,98985.14
2019-03-13T11:56:20.219Z,98948.05
2019-03-13T11:59:08.769Z,98958.97
2019-03-13T12:02:00.784Z,98951.14
2019-03-13T12:04:43.345Z,98942.44
2019-03-13T12:07:31.720Z,98953.05
2019-03-13T12:10:14.776Z,98933.19
2019-03-13T12:13:03.640Z,98941.56
2019-03-13T12:15:53.798Z,98929.31
2019-03-13T12:18:40.311Z,98942.64
2019-03-13T12:21:36.419Z,98912.72
2019-03-13T12:24:22.787Z,98904.90
2019-03-13T12:27:11.806Z,98919.84
2019-03-13T12:30:01.828Z,98917.46
2019-03-13T12:32:45.292Z,98887.14
2019-03-13T12:35:22.874Z,98920.27
2019-03-13T12:38:11.759Z,98909.19
2019-03-13T12:41:11.772Z,98901.26
2019-03-13T12:43:58.319Z,98903.97
2019-03-13T12:46:38.691Z,98896.89
2019-03-13T12:49:31.667Z,98907.33
2019-03-13T12:52:21.831Z,98895.81
2019-03-13T12:55:18.076Z,98907.10
2019-03-13T12:57:57.578Z,98905.66
2019-03-13T13:00:59.751Z,98903.58
2019-03-13T13:03:48.580Z,98897.50
2019-03-13T13:06:45.426Z,98895.11
2019-03-13T13:09:34.071Z,98890.73
2019-03-13T13:12:19.549Z,98898.72
2019-03-13T13:15:15.797Z,98904.09
2019-03-13T13:18:01.599Z,98903.63
2019-03-13T13:20:32.877Z,98898.63
2019-03-13T13:23:04.155Z,98906.34
2019-03-13T13:25:35.357Z,98898.95
2019-03-13T13:28:06.880Z,98899.12
2019-03-13T13:30:38.192Z,98903.55
2019-03-13T13:33:09.488Z,98903.55
2019-03-13T13:35:40.796Z,98905.34
2019-03-13T13:38:12.103Z,98893.48
2019-03-13T13:40:43.389Z,98907.64
2019-03-13T13:43:14.658Z,98897.27
2019-03-13T13:46:00.001Z,98892.17
2019-03-13T13:48:31.320Z,98893.89
2019-03-13T13:51:02.612Z,98881.44
2019-03-13T13:53:33.926Z,98861.26
2019-03-13T13:56:05.238Z,98877.09
2019-03-13T13:58:36.523Z,98889.86
2019-03-13T14:01:07.830Z,98897.66
2019-03-13T14:03:39.110Z,98873.04
2019-03-13T14:06:10.415Z,98890.33
2019-03-13T14:08:41.751Z,98888.57
2019-03-13T14:11:13.004Z,98888.34
2019-03-13T14:13:44.296Z,98901.56
2019-03-13T14:16:15.579Z,98883.02
2019-03-13T14:18:46.834Z,98895.56
2019-03-13T14:21:18.122Z,98903.04
2019-03-13T14:23:49.405Z,98908.05
2019-03-13T14:26:20.722Z,98918.51
2019-03-13T14:28:52.026Z,98929.56
2019-03-13T14:31:23.323Z,98916.66
2019-03-13T14:33:54.612Z,98918.87
2019-03-13T14:36:25.875Z,98934.43
2019-03-13T14:38:57.112Z,98892.43
2019-03-13T14:41:28.406Z,98919.59
2019-03-13T14:43:59.696Z,98916.80
2019-03-13T14:46:30.997Z,98929.05
2019-03-13T14:49:02.266Z,98926.97
2019-03-13T14:51:33.541Z,98923.36
2019-03-13T14:54:04.860Z,98923.10
2019-03-13T14:56:36.168Z,98931.12
2019-03-13T14:59:07.543Z,98917.05
2019-03-13T15:01:38.822Z,98952.91
2019-03-13T15:04:10.162Z,98944.75
2019-03-13T15:06:41.486Z,98943.80
2019-03-13T15:09:12.758Z,98940.95
2019-03-13T15:11:44.083Z,98954.91
2019-03-13T15:14:15.363Z,98948.91
2019-03-13T15:16:46.624Z,98939.97
2019-03-13T15:19:17.957Z,98935.59
2019-03-13T15:21:49.266Z,98949.50
2019-03-13T15:24:20.516Z,98934.97
2019-03-13T15:26:51.815Z,98937.88
2019-03-13T15:29:23.094Z,98946.75
2019-03-13T15:31:54.385Z,98933.63
2019-03-13T15:34:25.681Z,98937.44
2019-03-13T15:36:56.976Z,98940.77
2019-03-13T15:39:28.311Z,98938.75
2019-03-13T15:41:59.655Z,98936.39
2019-03-13T15:44:30.939Z,98942.39
2019-03-13T15:47:02.270Z,98940.56
2019-03-13T15:49:33.572Z,98950.27
2019-03-13T15:52:04.846Z,98952.67
2019-03-13T15:54:36.158Z,98957.51
2019-03-13T15:57:07.479Z,98934.89
2019-03-13T15:59:38.769Z,98949.58
2019-03-13T16:02:10.050Z,98944.20
2019-03-13T16:04:41.340Z,98939.28
2019-03-13T16:07:12.648Z,98941.27
2019-03-13T16:09:43.885Z,98946.14
2019-03-13T16:12:15.204Z,98949.89
2019-03-13T16:14:46.516Z,98951.97
2019-03-13T16:17:17.853Z,98961.35
2019-03-13T16:19:49.167Z,98951.20
2019-03-13T16:22:22.261Z,98957.91
2019-03-13T16:24:53.582Z,98963.74
2019-03-13T16:27:25.959Z,98962.44
2019-03-13T16:29:57.251Z,98980.44
2019-03-13T16:32:28.514Z,98975.52
2019-03-13T16:34:59.795Z,99002.69
2019-03-13T16:37:31.135Z,98986.61
2019-03-13T16:40:02.443Z,99000.15
2019-03-13T16:42:33.899Z,98996.81
2019-03-13T16:45:05.830Z,99006.69
2019-03-13T16:47:37.181Z,98996.77
2019-03-13T16:50:11.121Z,99002.77
2019-03-13T16:52:42.431Z,99007.45
2019-03-13T16:55:16.413Z,99009.94
2019-03-13T16:57:47.748Z,99004.44
2019-03-13T17:00:22.035Z,99013.28
2019-03-13T17:02:53.321Z,99009.54
2019-03-13T17:05:24.585Z,99008.38
2019-03-13T17:07:56.081Z,99014.91
2019-03-13T17:10:27.432Z,99008.77
2019-03-13T17:12:58.891Z,99010.37
2019-03-13T17:15:30.263Z,99012.69
2019-03-13T17:18:01.521Z,99013.37
2019-03-13T17:20:32.958Z,99035.52
2019-03-13T17:23:04.305Z,99024.47
2019-03-13T17:25:35.608Z,99030.67
2019-03-13T17:28:06.889Z,99026.89
2019-03-13T17:30:38.210Z,99034.97
2019-03-13T17:33:09.525Z,99031.34
2019-03-13T17:35:40.821Z,99038.66
2019-03-13T17:38:12.133Z,99039.50
2019-03-13T17:40:43.413Z,99043.02
2019-03-13T17:43:14.683Z,99034.30
2019-03-13T17:45:45.986Z,99042.52
2019-03-13T17:48:17.283Z,99050.81
2019-03-13T17:50:48.539Z,99048.17
2019-03-13T17:53:19.846Z,99062.20
2019-03-13T17:55:51.171Z,99067.44
2019-03-13T17:58:22.855Z,99072.34
2019-03-13T18:00:54.457Z,99057.64
2019-03-13T18:03:25.856Z,99064.58
2019-03-13T18:05:57.170Z,99064.59
2019-03-13T18:08:28.476Z,99065.41
2019-03-13T18:11:00.040Z,99076.64
2019-03-13T18:13:33.576Z,99082.25
2019-03-13T18:16:05.146Z,99085.84
2019-03-13T18:18:37.520Z,99090.54
2019-03-13T18:21:08.884Z,99093.14
2019-03-13T18:23:40.327Z,99092.20
2019-03-13T18:26:15.051Z,99091.22
2019-03-13T18:28:46.295Z,99099.67
2019-03-13T18:31:22.789Z,99104.49
2019-03-13T18:33:55.196Z,99112.13
2019-03-13T18:36:26.636Z,99104.41
2019-03-13T18:38:58.626Z,99112.38
2019-03-13T18:41:31.461Z,99127.69
2019-03-13T18:44:02.780Z,99130.63
2019-03-13T18:46:34.136Z,99121.02
2019-03-13T18:49:05.477Z,99131.48
2019-03-13T18:51:36.802Z,99142.06
2019-03-13T18:54:08.078Z,99146.55
2019-03-13T18:56:39.343Z,99157.92
2019-03-13T18:59:10.669Z,99157.79
2019-03-13T19:01:41.957Z,99164.12
2019-03-13T19:04:13.234Z,99167.91
2019-03-13T19:06:44.539Z,99189.94
2019-03-13T19:09:15.830Z,99191.25
2019-03-13T19:11:47.180Z,99197.42
2019-03-13T19:14:18.477Z,99199.19
2019-03-13T19:16:49.772Z,99200.20
2019-03-13T19:19:21.102Z,99202.13
2019-03-13T19:21:52.425Z,99202.61
2019-03-13T19:24:23.730Z,99206.53
2019-03-13T19:26:55.081Z,99203.75
2019-03-13T19:29:26.407Z,99204.37
2019-03-13T19:31:57.655Z,99235.23
2019-03-13T19:34:28.989Z,99219.34
2019-03-13T19:37:00.332Z,99221.13
2019-03-13T19:39:32.263Z,99235.37
2019-03-13T19:42:03.566Z,99236.19
2019-03-13T19:44:34.874Z,99244.41
2019-03-13T19:47:06.121Z,99237.29
2019-03-13T19:49:37.466Z,99249.39
2019-03-13T19:52:08.893Z,99253.36
2019-03-13T19:54:40.178Z,99265.67
2019-03-13T19:57:11.500Z,99263.83
2019-03-13T19:59:42.980Z,99262.72
2019-03-13T20:02:14.328Z,99269.34
2019-03-13T20:04:47.582Z,99279.73
2019-03-13T20:07:18.707Z,99273.30
2019-03-13T20:09:50.075Z,99276.09
2019-03-13T20:12:21.410Z,99281.36
2019-03-13T20:14:52.760Z,99279.23
2019-03-13T20:17:24.177Z,99298.26
2019-03-13T20:19:55.562Z,99302.27
2019-03-13T20:22:26.956Z,99302.59
2019-03-13T20:24:58.311Z,99308.11
2019-03-13T20:27:29.661Z,99305.29
2019-03-13T20:30:01.034Z,99313.34
2019-03-13T20:32:32.384Z,99314.20
2019-03-13T20:35:03.731Z,99322.34
2019-03-13T20:37:35.111Z,99324.77
2019-03-13T20:40:07.765Z,99321.12
2019-03-13T20:42:39.162Z,99329.50
2019-03-13T20:45:12.775Z,99330.48
2019-03-13T20:47:44.082Z,99326.64
2019-03-13T20:50:16.063Z,99338.74
2019-03-13T20:52:47.407Z,99351.25
2019-03-13T20:55:18.983Z,99354.50
2019-03-13T20:57:50.540Z,99350.39
2019-03-13T21:00:24.082Z,99365.49
2019-03-13T21:02:56.080Z,99366.88
2019-03-13T21:05:27.428Z,99370.48
2019-03-13T21:07:58.695Z,99377.95
2019-03-13T21:10:30.111Z,99375.44
2019-03-13T21:13:01.421Z,99385.28
2019-03-13T21:15:32.747Z,99383.84
2019-03-13T21:18:04.149Z,99384.48
2019-03-13T21:20:35.475Z,99380.75
2019-03-13T21:23:06.842Z,99368.13
2019-03-13T21:25:38.161Z,99384.02
2019-03-13T21:28:09.491Z,99381.67
2019-03-13T21:30:41.200Z,99379.52
2019-03-13T21:33:12.531Z,99401.48
2019-03-13T21:35:43.979Z,99392.11
2019-03-13T21:38:15.336Z,99388.00
2019-03-13T21:40:46.751Z,99393.02
2019-03-13T21:43:18.944Z,99395.97
2019-03-13T21:45:50.351Z,99402.16
2019-03-13T21:48:21.701Z,99410.69
2019-03-13T21:50:53.043Z,99405.56
2019-03-13T21:53:27.439Z,99424.20
2019-03-13T21:55:58.781Z,99420.13
2019-03-13T21:58:30.101Z,99421.33
2019-03-13T22:01:01.465Z,99424.31
2019-03-13T22:03:32.786Z,99428.05
2019-03-13T22:06:04.102Z,99432.20
2019-03-13T22:08:35.417Z,99430.41
2019-03-13T22:11:06.839Z,99435.45
2019-03-13T22:13:38.182Z,99440.42
2019-03-13T22:16:09.489Z,99444.79
2019-03-13T22:18:40.791Z,99441.45
2019-03-13T22:21:12.082Z,99445.56
2019-03-13T22:23:43.357Z,99447.88
2019-03-13T22:26:15.015Z,99449.50
2019-03-13T22:28:46.323Z,99446.32
2019-03-13T22:31:17.649Z,99451.22
2019-03-13T22:33:49.005Z,99442.33
2019-03-13T22:36:20.285Z,99458.80
2019-03-13T22:38:51.994Z,99463.59
2019-03-13T22:41:23.302Z,99471.95
2019-03-13T22:43:54.627Z,99465.16
2019-03-13T22:46:25.969Z,99474.23
2019-03-13T22:48:58.575Z,99482.77
2019-03-13T22:51:30.090Z,99495.13
2019-03-13T22:54:01.431Z,99493.75
2019-03-13T22:56:32.734Z,99507.80
2019-03-13T22:59:04.037Z,99506.27
2019-03-13T23:01:35.666Z,99492.25
2019-03-13T23:04:07.162Z,99501.41
2019-03-13T23:06:38.436Z,99502.79
2019-03-13T23:09:13.720Z,99505.67
2019-03-13T23:11:45.037Z,99513.86
2019-03-13T23:14:16.341Z,99511.69
2019-03-13T23:16:47.619Z,99513.67
2019-03-13T23:19:18.892Z,99508.06
2019-03-13T23:21:50.130Z,99523.91
2019-03-13T23:24:21.365Z,99521.89
2019-03-13T23:26:52.662Z,99530.08
2019-03-13T23:29:23.936Z,99540.40
2019-03-13T23:31:55.208Z,99528.92
2019-03-13T23:34:26.510Z,99537.08
2019-03-13T23:36:57.799Z,99540.22
2019-03-13T23:39:29.184Z,99549.98
2019-03-13T23:42:00.476Z,99548.24
2019-03-13T23:44:31.828Z,99546.98
2019-03-13T23:47:03.190Z,99548.92
2019-03-13T23:49:34.510Z,99548.15
2019-03-13T23:52:05.848Z,99558.49
2019-03-13T23:54:37.194Z,99562.41
2019-03-13T23:57:08.467Z,99551.81
2019-03-13T23:59:39.775Z,99559.14
